Time;durP1;ratioP1;P1;durP2;ratioP2;P2;SDS_P1;SDS_P2;PMS_P1;PMS_P2;Temp;Humidity;BMP_temperature;BMP_pressure;BME280_temperature;BME280_humidity;BME280_pressure;Samples;Min_cycle;Max_cycle;Signal;HPM_P1;HPM_P2
2023/03/02 00:02:23;;;;;;;32.10;18.30;;;;;;;;;;4970826;28;20173;-77
2023/03/02 00:04:50;;;;;;;38.37;19.87;;;;;;;;;;4954340;28;20185;-77
2023/03/02 00:07:18;;;;;;;38.50;21.20;;;;;;;;;;4957396;28;20549;-77
2023/03/02 00:09:44;;;;;;;36.63;19.90;;;;;;;;;;4953092;28;20207;-77
2023/03/02 00:12:09;;;;;;;39.57;20.13;;;;;;;;;;4952684;28;20185;-77
2023/03/02 00:14:36;;;;;;;39.40;21.63;;;;;;;;;;4952960;28;20177;-77
2023/03/02 00:17:02;;;;;;;37.07;20.97;;;;;;;;;;4952557;28;20208;-77
2023/03/02 00:19:27;;;;;;;39.30;20.83;;;;;;;;;;4956175;28;20717;-76
2023/03/02 00:21:52;;;;;;;43.07;22.00;;;;;;;;;;4957909;28;20197;-77
2023/03/02 00:24:17;;;;;;;41.50;21.93;;;;;;;;;;4955059;28;20195;-76
2023/03/02 00:26:43;;;;;;;36.90;20.53;;;;;;;;;;4955938;28;20228;-77
2023/03/02 00:29:08;;;;;;;42.40;22.20;;;;;;;;;;4955706;28;20213;-76
2023/03/02 00:31:33;;;;;;;40.03;21.47;;;;;;;;;;4947722;28;20703;-77
2023/03/02 00:33:58;;;;;;;40.57;22.13;;;;;;;;;;4955396;28;20188;-77
2023/03/02 00:36:24;;;;;;;44.77;23.70;;;;;;;;;;4951853;28;20359;-77
2023/03/02 00:38:51;;;;;;;46.17;24.17;;;;;;;;;;4955239;28;20225;-78
2023/03/02 00:41:16;;;;;;;41.20;23.80;;;;;;;;;;4973947;28;20181;-77
2023/03/02 00:43:41;;;;;;;49.17;25.10;;;;;;;;;;4949850;28;20276;-77
2023/03/02 00:46:17;;;;;;;47.63;23.43;;;;;;;;;;4955372;28;20284;-78
2023/03/02 00:48:42;;;;;;;47.70;24.70;;;;;;;;;;4958807;28;20741;-77
2023/03/02 00:51:08;;;;;;;42.40;23.13;;;;;;;;;;4947132;28;20266;-77
2023/03/02 00:53:34;;;;;;;47.30;25.23;;;;;;;;;;4951694;28;20605;-77
2023/03/02 00:56:00;;;;;;;49.03;23.20;;;;;;;;;;4953399;28;20680;-77
2023/03/02 00:58:26;;;;;;;46.93;24.57;;;;;;;;;;4951373;28;20217;-77
2023/03/02 01:00:51;;;;;;;45.90;23.77;;;;;;;;;;4954325;28;20181;-78
2023/03/02 01:03:16;;;;;;;45.13;24.73;;;;;;;;;;4955474;28;20177;-77
2023/03/02 01:05:41;;;;;;;48.73;24.30;;;;;;;;;;4953833;28;20236;-77
2023/03/02 01:08:07;;;;;;;46.23;25.53;;;;;;;;;;4953468;28;20204;-77
2023/03/02 01:10:32;;;;;;;51.37;23.73;;;;;;;;;;4971887;28;20191;-77
2023/03/02 01:12:58;;;;;;;47.63;25.00;;;;;;;;;;4959818;28;20335;-77
2023/03/02 01:15:23;;;;;;;48.53;24.77;;;;;;;;;;4956986;28;20651;-77
2023/03/02 01:17:48;;;;;;;53.43;23.47;;;;;;;;;;4962510;28;20208;-77
2023/03/02 01:20:14;;;;;;;53.80;25.83;;;;;;;;;;4954478;28;20205;-77
2023/03/02 01:22:39;;;;;;;50.73;26.10;;;;;;;;;;4959373;28;20460;-77
2023/03/02 01:25:04;;;;;;;53.00;25.20;;;;;;;;;;4970675;28;20181;-77
2023/03/02 01:27:29;;;;;;;51.83;25.40;;;;;;;;;;4944085;28;20216;-77
2023/03/02 01:29:55;;;;;;;48.73;23.47;;;;;;;;;;4967459;28;20223;-77
2023/03/02 01:32:20;;;;;;;49.93;25.20;;;;;;;;;;4959151;28;20205;-77
2023/03/02 01:34:45;;;;;;;56.47;25.43;;;;;;;;;;4963051;28;20176;-78
2023/03/02 01:37:10;;;;;;;49.97;25.23;;;;;;;;;;4952761;28;20185;-78
2023/03/02 01:39:35;;;;;;;57.30;26.77;;;;;;;;;;4958891;28;20782;-77
2023/03/02 01:42:01;;;;;;;58.53;24.70;;;;;;;;;;4944895;28;20281;-78
2023/03/02 01:44:45;;;;;;;49.43;24.70;;;;;;;;;;4950359;28;20205;-78
2023/03/02 01:47:13;;;;;;;52.93;24.50;;;;;;;;;;4949412;28;20230;-78
2023/03/02 01:49:40;;;;;;;48.03;23.37;;;;;;;;;;4954006;28;20199;-78
2023/03/02 01:52:06;;;;;;;52.67;26.00;;;;;;;;;;4947918;28;20274;-78
2023/03/02 01:54:32;;;;;;;58.67;24.50;;;;;;;;;;4954963;28;20172;-77
2023/03/02 01:56:59;;;;;;;55.70;26.57;;;;;;;;;;4951820;28;20215;-77
2023/03/02 01:59:27;;;;;;;55.93;24.13;;;;;;;;;;4954824;28;20211;-77
2023/03/02 02:01:55;;;;;;;55.33;25.77;;;;;;;;;;4951754;28;20197;-78
2023/03/02 02:04:21;;;;;;;52.20;23.77;;;;;;;;;;4947831;28;20595;-78
2023/03/02 02:06:49;;;;;;;53.77;24.77;;;;;;;;;;4957161;28;20188;-78
2023/03/02 02:09:16;;;;;;;60.03;27.03;;;;;;;;;;4955032;28;20654;-78
2023/03/02 02:11:41;;;;;;;56.37;25.07;;;;;;;;;;4954578;28;20199;-78
2023/03/02 02:14:07;;;;;;;54.00;24.43;;;;;;;;;;4947446;28;20652;-78
2023/03/02 02:16:33;;;;;;;52.80;23.87;;;;;;;;;;4956645;28;20599;-77
2023/03/02 02:18:59;;;;;;;54.83;25.47;;;;;;;;;;4955067;28;20829;-77
2023/03/02 02:21:25;;;;;;;54.07;24.30;;;;;;;;;;4957962;28;20240;-77
2023/03/02 02:24:02;;;;;;;51.27;24.13;;;;;;;;;;4957064;28;20558;-77
2023/03/02 02:26:29;;;;;;;57.43;25.30;;;;;;;;;;4956438;28;20212;-77
2023/03/02 02:28:56;;;;;;;52.80;23.67;;;;;;;;;;4971745;28;20259;-77
2023/03/02 02:31:40;;;;;;;58.60;26.07;;;;;;;;;;4955143;28;20172;-78
2023/03/02 02:34:14;;;;;;;55.13;24.70;;;;;;;;;;4955713;28;20223;-77
2023/03/02 02:36:43;;;;;;;54.73;23.57;;;;;;;;;;4957651;28;20251;-79
2023/03/02 02:39:13;;;;;;;55.03;23.63;;;;;;;;;;4957981;28;20212;-77
2023/03/02 02:41:39;;;;;;;59.40;27.03;;;;;;;;;;4958105;28;20211;-78
2023/03/02 02:44:04;;;;;;;59.30;25.43;;;;;;;;;;4954780;28;20181;-78
2023/03/02 02:46:30;;;;;;;58.63;26.10;;;;;;;;;;4958920;28;20173;-78
2023/03/02 02:48:55;;;;;;;51.97;23.13;;;;;;;;;;4956054;28;20577;-78
2023/03/02 02:51:22;;;;;;;58.23;26.33;;;;;;;;;;4951342;28;20196;-79
2023/03/02 02:53:57;;;;;;;53.30;22.47;;;;;;;;;;4952251;28;20181;-78
2023/03/02 02:56:24;;;;;;;58.80;25.27;;;;;;;;;;4953166;28;20184;-78
2023/03/02 02:58:50;;;;;;;54.00;24.27;;;;;;;;;;4957804;28;20240;-78
2023/03/02 03:01:17;;;;;;;55.10;24.53;;;;;;;;;;4952463;28;20662;-77
2023/03/02 03:03:49;;;;;;;58.10;26.10;;;;;;;;;;4948879;28;20189;-78
2023/03/02 03:06:22;;;;;;;57.97;25.23;;;;;;;;;;4954769;28;20191;-78
2023/03/02 03:08:50;;;;;;;55.30;23.97;;;;;;;;;;4957086;28;20637;-78
2023/03/02 03:11:18;;;;;;;50.90;24.07;;;;;;;;;;4958144;28;20188;-78
2023/03/02 03:13:44;;;;;;;61.70;25.60;;;;;;;;;;4956141;28;20173;-77
2023/03/02 03:16:12;;;;;;;58.60;24.27;;;;;;;;;;4951971;28;20217;-77
2023/03/02 03:18:37;;;;;;;55.77;24.17;;;;;;;;;;4955884;28;20208;-77
2023/03/02 03:21:03;;;;;;;48.73;24.03;;;;;;;;;;4954944;28;20173;-77
2023/03/02 03:23:29;;;;;;;56.17;23.67;;;;;;;;;;4955392;28;20268;-77
2023/03/02 03:25:54;;;;;;;52.13;22.87;;;;;;;;;;4950335;28;20181;-77
2023/03/02 03:28:19;;;;;;;61.53;23.67;;;;;;;;;;4958243;28;20221;-77
2023/03/02 03:30:44;;;;;;;52.83;23.63;;;;;;;;;;4955982;28;20825;-78
2023/03/02 03:33:10;;;;;;;51.47;24.03;;;;;;;;;;4957396;28;20263;-77
2023/03/02 03:35:36;;;;;;;51.33;22.53;;;;;;;;;;4955655;28;20217;-78
2023/03/02 03:38:01;;;;;;;47.83;23.37;;;;;;;;;;4954200;28;20236;-78
2023/03/02 03:40:27;;;;;;;48.40;22.83;;;;;;;;;;4955009;28;20181;-77
2023/03/02 03:42:53;;;;;;;53.87;23.10;;;;;;;;;;4956320;28;20177;-78
2023/03/02 03:45:18;;;;;;;48.40;22.93;;;;;;;;;;4956437;28;20176;-77
2023/03/02 03:47:43;;;;;;;49.17;21.53;;;;;;;;;;4955154;28;20189;-77
2023/03/02 03:50:09;;;;;;;51.57;22.40;;;;;;;;;;4955771;28;20178;-78
2023/03/02 03:52:34;;;;;;;49.20;21.43;;;;;;;;;;4948634;28;20559;-78
2023/03/02 03:55:00;;;;;;;52.67;21.77;;;;;;;;;;4955236;28;20559;-77
2023/03/02 03:57:28;;;;;;;51.53;21.73;;;;;;;;;;4955469;28;20181;-77
2023/03/02 03:59:53;;;;;;;46.30;21.53;;;;;;;;;;4955036;28;20611;-77
2023/03/02 04:02:19;;;;;;;48.73;22.23;;;;;;;;;;4945136;28;20185;-77
2023/03/02 04:04:45;;;;;;;52.20;22.10;;;;;;;;;;4940884;28;20321;-77
2023/03/02 04:07:10;;;;;;;48.87;21.37;;;;;;;;;;4949292;28;20261;-77
2023/03/02 04:09:36;;;;;;;49.87;21.73;;;;;;;;;;4942055;28;20276;-77
2023/03/02 04:12:02;;;;;;;49.67;22.07;;;;;;;;;;4960119;28;20188;-77
2023/03/02 04:14:28;;;;;;;48.80;22.37;;;;;;;;;;4953697;28;20201;-77
2023/03/02 04:16:53;;;;;;;47.63;21.90;;;;;;;;;;4947944;28;20180;-77
2023/03/02 04:19:19;;;;;;;46.57;21.90;;;;;;;;;;4951801;28;20705;-77
2023/03/02 04:21:45;;;;;;;49.17;21.73;;;;;;;;;;4949896;28;20181;-78
2023/03/02 04:24:11;;;;;;;55.90;22.23;;;;;;;;;;4951880;28;20174;-77
2023/03/02 04:26:38;;;;;;;40.47;21.00;;;;;;;;;;4948563;28;20185;-77
2023/03/02 04:29:04;;;;;;;48.53;22.20;;;;;;;;;;4951085;28;20255;-77
2023/03/02 04:31:30;;;;;;;46.33;22.07;;;;;;;;;;4954380;28;20201;-78
2023/03/02 04:33:55;;;;;;;40.63;20.50;;;;;;;;;;4955944;28;20186;-78
2023/03/02 04:36:20;;;;;;;44.60;21.03;;;;;;;;;;4955605;28;20172;-78
2023/03/02 04:38:46;;;;;;;43.13;20.80;;;;;;;;;;4955270;28;20295;-78
2023/03/02 04:41:11;;;;;;;45.60;20.80;;;;;;;;;;4956642;28;20552;-78
2023/03/02 04:43:36;;;;;;;47.80;21.17;;;;;;;;;;4954786;28;20196;-78
2023/03/02 04:46:01;;;;;;;48.27;21.27;;;;;;;;;;4950038;28;20577;-78
2023/03/02 04:48:27;;;;;;;48.17;20.90;;;;;;;;;;4952632;28;20228;-77
2023/03/02 04:50:52;;;;;;;43.20;21.30;;;;;;;;;;4957840;28;20579;-78
2023/03/02 04:53:17;;;;;;;41.70;20.30;;;;;;;;;;4959601;28;20180;-78
2023/03/02 04:55:42;;;;;;;44.13;20.77;;;;;;;;;;4963111;28;20180;-79
2023/03/02 04:58:08;;;;;;;39.37;19.13;;;;;;;;;;4959286;28;20698;-79
2023/03/02 05:00:34;;;;;;;43.80;20.27;;;;;;;;;;4961412;28;20619;-78
2023/03/02 05:03:00;;;;;;;45.47;19.43;;;;;;;;;;4948162;28;20184;-78
2023/03/02 05:05:25;;;;;;;42.67;20.33;;;;;;;;;;4948190;28;20181;-79
2023/03/02 05:07:51;;;;;;;47.23;20.13;;;;;;;;;;4960366;28;20643;-78
2023/03/02 05:10:18;;;;;;;39.87;19.67;;;;;;;;;;4944973;28;20188;-78
2023/03/02 05:13:03;;;;;;;41.87;19.70;;;;;;;;;;4947950;28;20212;-78
2023/03/02 05:15:38;;;;;;;41.33;18.77;;;;;;;;;;4951585;28;20184;-77
2023/03/02 05:18:04;;;;;;;40.73;19.63;;;;;;;;;;4946913;28;20259;-77
2023/03/02 05:20:30;;;;;;;43.77;20.07;;;;;;;;;;4949778;28;20558;-77
2023/03/02 05:23:03;;;;;;;38.60;19.93;;;;;;;;;;4957899;28;20181;-77
2023/03/02 05:25:30;;;;;;;45.83;20.10;;;;;;;;;;4959837;28;20227;-77
2023/03/02 05:27:55;;;;;;;51.67;21.40;;;;;;;;;;4956744;28;20180;-77
2023/03/02 05:30:21;;;;;;;41.73;20.93;;;;;;;;;;4951567;28;20189;-77
2023/03/02 05:32:46;;;;;;;41.90;19.47;;;;;;;;;;4955579;28;20267;-78
2023/03/02 05:35:12;;;;;;;41.10;19.10;;;;;;;;;;4952528;28;20569;-79
2023/03/02 05:37:41;;;;;;;46.53;21.87;;;;;;;;;;4952470;28;20178;-77
2023/03/02 05:40:07;;;;;;;45.73;19.73;;;;;;;;;;4968814;28;20200;-77
2023/03/02 05:42:34;;;;;;;38.10;17.10;;;;;;;;;;4967652;28;20188;-77
2023/03/02 05:44:59;;;;;;;47.63;20.87;;;;;;;;;;4980193;28;20563;-77
2023/03/02 05:47:25;;;;;;;39.33;17.87;;;;;;;;;;4966699;28;20185;-76
2023/03/02 05:49:50;;;;;;;42.93;19.63;;;;;;;;;;4954498;28;20196;-78
2023/03/02 05:52:15;;;;;;;43.67;18.13;;;;;;;;;;4955596;28;20227;-77
2023/03/02 05:54:40;;;;;;;43.10;20.03;;;;;;;;;;4966937;28;20177;-77
2023/03/02 05:57:06;;;;;;;46.63;20.53;;;;;;;;;;4962470;28;20658;-77
2023/03/02 05:59:31;;;;;;;45.53;18.87;;;;;;;;;;4963168;28;20212;-77
2023/03/02 06:01:57;;;;;;;39.13;17.10;;;;;;;;;;4957647;28;20268;-78
2023/03/02 06:04:24;;;;;;;48.13;20.43;;;;;;;;;;4973514;28;20172;-77
2023/03/02 06:06:49;;;;;;;40.47;18.93;;;;;;;;;;4977510;28;20176;-78
2023/03/02 06:09:14;;;;;;;41.07;18.80;;;;;;;;;;4958436;28;20220;-78
2023/03/02 06:11:39;;;;;;;42.53;19.67;;;;;;;;;;4953596;28;20227;-78
2023/03/02 06:14:04;;;;;;;41.97;20.10;;;;;;;;;;4953931;28;20181;-77
2023/03/02 06:16:30;;;;;;;40.37;19.93;;;;;;;;;;4951567;28;20216;-77
2023/03/02 06:18:56;;;;;;;45.53;20.63;;;;;;;;;;4970057;28;20219;-78
2023/03/02 06:21:21;;;;;;;48.77;21.77;;;;;;;;;;4960975;28;20169;-77
2023/03/02 06:23:46;;;;;;;47.17;20.30;;;;;;;;;;4957946;28;20188;-78
2023/03/02 06:26:12;;;;;;;43.47;20.60;;;;;;;;;;4955281;28;20227;-78
2023/03/02 06:28:37;;;;;;;51.03;22.17;;;;;;;;;;4960551;28;20205;-77
2023/03/02 06:31:02;;;;;;;43.17;20.83;;;;;;;;;;4966766;28;20180;-77
2023/03/02 06:33:29;;;;;;;45.17;20.40;;;;;;;;;;4961768;28;20654;-77
2023/03/02 06:35:55;;;;;;;46.47;21.67;;;;;;;;;;4958971;28;20236;-78
2023/03/02 06:38:20;;;;;;;46.07;21.43;;;;;;;;;;4959031;28;20243;-78
2023/03/02 06:40:45;;;;;;;49.67;21.10;;;;;;;;;;4952973;28;20276;-78
2023/03/02 06:43:10;;;;;;;49.00;20.77;;;;;;;;;;4957320;28;20196;-79
2023/03/02 06:45:36;;;;;;;43.53;20.33;;;;;;;;;;4962130;28;20571;-78
2023/03/02 06:48:02;;;;;;;54.20;21.77;;;;;;;;;;4959937;28;20663;-78
2023/03/02 06:50:28;;;;;;;51.83;21.73;;;;;;;;;;4957042;28;20182;-78
2023/03/02 06:52:53;;;;;;;46.57;20.43;;;;;;;;;;4958984;28;20239;-78
2023/03/02 06:55:18;;;;;;;44.60;20.23;;;;;;;;;;4951953;28;20181;-78
2023/03/02 06:57:43;;;;;;;53.30;23.33;;;;;;;;;;4958403;28;20208;-78
2023/03/02 07:00:14;;;;;;;53.63;21.73;;;;;;;;;;4960372;28;20558;-78
2023/03/02 07:02:39;;;;;;;45.40;22.07;;;;;;;;;;4953450;28;20271;-78
2023/03/02 07:05:05;;;;;;;47.83;20.83;;;;;;;;;;4959303;28;20552;-78
2023/03/02 07:07:30;;;;;;;51.67;22.70;;;;;;;;;;4954911;28;20189;-78
2023/03/02 07:09:55;;;;;;;47.17;21.20;;;;;;;;;;4963179;28;20208;-78
2023/03/02 07:12:20;;;;;;;45.40;20.67;;;;;;;;;;4952480;28;20177;-78
2023/03/02 07:14:46;;;;;;;44.53;20.93;;;;;;;;;;4953253;28;20188;-78
2023/03/02 07:17:11;;;;;;;42.30;18.60;;;;;;;;;;4953625;28;20259;-78
2023/03/02 07:19:37;;;;;;;44.50;21.13;;;;;;;;;;4946549;28;20589;-78
2023/03/02 07:22:02;;;;;;;45.70;20.37;;;;;;;;;;4950151;28;20213;-78
2023/03/02 07:24:28;;;;;;;41.80;20.57;;;;;;;;;;4954946;28;20236;-78
2023/03/02 07:26:53;;;;;;;41.50;20.50;;;;;;;;;;4955358;28;20177;-78
2023/03/02 07:29:18;;;;;;;38.73;20.50;;;;;;;;;;4957391;28;20200;-78
2023/03/02 07:31:43;;;;;;;40.70;19.73;;;;;;;;;;4956107;28;20654;-78
2023/03/02 07:34:08;;;;;;;44.77;20.23;;;;;;;;;;4956654;28;20211;-77
2023/03/02 07:36:34;;;;;;;36.10;18.37;;;;;;;;;;4956362;28;20259;-78
2023/03/02 07:39:00;;;;;;;39.50;18.33;;;;;;;;;;4955122;28;20212;-78
2023/03/02 07:41:26;;;;;;;37.07;17.23;;;;;;;;;;4955480;28;20181;-78
2023/03/02 07:43:51;;;;;;;38.10;18.43;;;;;;;;;;4954300;28;20173;-77
2023/03/02 07:46:16;;;;;;;37.50;18.43;;;;;;;;;;4956218;28;20208;-77
2023/03/02 07:48:41;;;;;;;36.13;18.10;;;;;;;;;;4957848;28;20197;-77
2023/03/02 07:51:06;;;;;;;39.33;18.47;;;;;;;;;;4955675;28;20528;-78
2023/03/02 07:53:32;;;;;;;36.43;17.33;;;;;;;;;;4951741;28;20185;-78
2023/03/02 07:55:57;;;;;;;35.77;17.80;;;;;;;;;;4952148;28;20267;-77
2023/03/02 07:58:23;;;;;;;37.87;17.63;;;;;;;;;;4948862;28;20219;-77
2023/03/02 08:00:48;;;;;;;30.47;17.07;;;;;;;;;;4949349;28;20651;-78
2023/03/02 08:03:13;;;;;;;31.43;16.73;;;;;;;;;;4949771;28;20193;-78
2023/03/02 08:05:39;;;;;;;34.53;16.23;;;;;;;;;;4955252;28;20667;-77
2023/03/02 08:08:04;;;;;;;30.93;15.90;;;;;;;;;;4955224;28;20701;-78
2023/03/02 08:10:29;;;;;;;34.87;16.00;;;;;;;;;;4955537;28;20251;-77
2023/03/02 08:12:54;;;;;;;32.37;17.73;;;;;;;;;;4955592;28;20205;-77
2023/03/02 08:15:20;;;;;;;30.60;16.17;;;;;;;;;;4954458;28;20243;-78
2023/03/02 08:17:45;;;;;;;32.07;16.20;;;;;;;;;;4953713;28;20185;-77
2023/03/02 08:20:10;;;;;;;31.40;16.63;;;;;;;;;;4953641;28;20177;-77
2023/03/02 08:22:36;;;;;;;33.27;17.30;;;;;;;;;;4960263;28;20242;-77
2023/03/02 08:25:01;;;;;;;29.77;15.50;;;;;;;;;;4974922;28;20689;-77
2023/03/02 08:27:26;;;;;;;28.10;15.07;;;;;;;;;;4955224;28;20177;-77
2023/03/02 08:29:53;;;;;;;25.70;14.60;;;;;;;;;;4953321;28;20214;-77
2023/03/02 08:32:18;;;;;;;23.93;14.70;;;;;;;;;;4957764;28;20184;-78
2023/03/02 08:34:43;;;;;;;29.07;15.00;;;;;;;;;;4952833;28;20219;-77
2023/03/02 08:37:08;;;;;;;29.43;15.50;;;;;;;;;;4957032;28;20173;-77
2023/03/02 08:39:34;;;;;;;27.23;14.77;;;;;;;;;;4953531;28;20203;-77
2023/03/02 08:41:59;;;;;;;25.27;13.80;;;;;;;;;;4962359;28;20176;-77
2023/03/02 08:44:24;;;;;;;26.60;14.63;;;;;;;;;;4961783;28;20232;-77
2023/03/02 08:46:50;;;;;;;27.73;14.53;;;;;;;;;;4956720;28;20556;-77
2023/03/02 08:49:16;;;;;;;29.47;14.77;;;;;;;;;;4944668;28;20208;-77
2023/03/02 08:51:41;;;;;;;30.03;15.43;;;;;;;;;;4958770;28;20247;-77
2023/03/02 08:54:07;;;;;;;23.10;12.63;;;;;;;;;;4951694;28;20196;-79
2023/03/02 08:56:33;;;;;;;26.37;12.97;;;;;;;;;;4971651;28;20177;-77
2023/03/02 08:58:59;;;;;;;21.10;12.70;;;;;;;;;;4946626;28;20212;-77
2023/03/02 09:01:27;;;;;;;23.13;12.57;;;;;;;;;;4959720;28;20181;-77
2023/03/02 09:03:53;;;;;;;21.50;11.93;;;;;;;;;;4958010;28;20181;-77
2023/03/02 09:06:18;;;;;;;19.43;11.73;;;;;;;;;;4951107;28;20185;-77
2023/03/02 09:08:43;;;;;;;19.27;10.87;;;;;;;;;;4943883;28;20292;-77
2023/03/02 09:11:09;;;;;;;18.37;10.10;;;;;;;;;;4949772;28;20200;-77
2023/03/02 09:13:34;;;;;;;17.67;10.60;;;;;;;;;;4949672;28;20201;-78
2023/03/02 09:16:00;;;;;;;19.13;10.60;;;;;;;;;;4950424;28;20189;-77
2023/03/02 09:18:26;;;;;;;30.33;18.20;;;;;;;;;;4953316;28;20219;-77
2023/03/02 09:20:51;;;;;;;21.20;11.13;;;;;;;;;;4949952;28;20597;-78
2023/03/02 09:23:17;;;;;;;24.13;14.10;;;;;;;;;;4952695;28;20187;-77
2023/03/02 09:25:42;;;;;;;17.43;9.90;;;;;;;;;;4953160;28;20173;-77
2023/03/02 09:28:08;;;;;;;22.13;11.33;;;;;;;;;;4949354;28;20200;-77
2023/03/02 09:30:33;;;;;;;16.13;9.57;;;;;;;;;;4954546;28;20567;-77
2023/03/02 09:32:58;;;;;;;19.30;9.90;;;;;;;;;;4948955;28;20651;-78
2023/03/02 09:35:23;;;;;;;15.57;9.77;;;;;;;;;;4948023;28;20209;-77
2023/03/02 09:37:48;;;;;;;15.67;10.03;;;;;;;;;;4943218;28;20701;-78
2023/03/02 09:40:24;;;;;;;15.87;9.73;;;;;;;;;;4949486;28;20192;-77
2023/03/02 09:43:02;;;;;;;15.97;8.60;;;;;;;;;;4948487;28;20185;-77
2023/03/02 09:45:46;;;;;;;15.83;9.27;;;;;;;;;;4949773;28;20188;-77
2023/03/02 09:48:19;;;;;;;14.77;9.63;;;;;;;;;;4950273;28;20203;-77
2023/03/02 09:51:03;;;;;;;18.50;9.73;;;;;;;;;;4953098;28;20213;-77
2023/03/02 09:53:33;;;;;;;18.03;9.20;;;;;;;;;;4950837;28;20228;-77
2023/03/02 09:56:01;;;;;;;15.30;9.13;;;;;;;;;;4944924;28;20185;-77
2023/03/02 09:58:38;;;;;;;15.20;9.70;;;;;;;;;;4955854;28;20217;-77
2023/03/02 10:01:08;;;;;;;16.83;9.70;;;;;;;;;;4969276;28;20180;-77
2023/03/02 10:03:37;;;;;;;15.87;10.43;;;;;;;;;;4951292;28;20593;-78
2023/03/02 10:06:02;;;;;;;18.23;9.93;;;;;;;;;;4951719;28;20280;-77
2023/03/02 10:08:29;;;;;;;15.77;9.20;;;;;;;;;;4950486;28;20726;-78
2023/03/02 10:11:07;;;;;;;18.73;10.47;;;;;;;;;;4950095;28;20185;-79
2023/03/02 10:13:41;;;;;;;18.67;11.10;;;;;;;;;;4957256;28;20192;-77
2023/03/02 10:16:06;;;;;;;15.40;9.03;;;;;;;;;;4964321;28;20196;-77
2023/03/02 10:18:49;;;;;;;16.70;10.47;;;;;;;;;;4950036;28;20209;-77
2023/03/02 10:21:27;;;;;;;15.83;9.70;;;;;;;;;;4953543;28;20176;-79
2023/03/02 10:23:52;;;;;;;17.07;10.13;;;;;;;;;;4952564;28;20181;-78
2023/03/02 10:26:38;;;;;;;16.67;9.70;;;;;;;;;;4964139;28;20268;-78
2023/03/02 10:29:06;;;;;;;17.37;10.37;;;;;;;;;;4945306;28;20231;-78
2023/03/02 10:31:32;;;;;;;18.13;10.27;;;;;;;;;;4948685;28;20182;-78
2023/03/02 10:33:57;;;;;;;17.10;10.80;;;;;;;;;;4954358;28;20199;-78
2023/03/02 10:36:24;;;;;;;17.10;10.10;;;;;;;;;;4955223;28;20184;-78
2023/03/02 10:38:50;;;;;;;16.27;10.93;;;;;;;;;;4964929;28;20216;-78
2023/03/02 10:41:18;;;;;;;16.10;9.80;;;;;;;;;;4947175;28;20197;-78
2023/03/02 10:43:51;;;;;;;17.20;9.30;;;;;;;;;;4956308;28;20262;-78
2023/03/02 10:46:17;;;;;;;16.53;10.33;;;;;;;;;;4949532;28;20230;-78
2023/03/02 10:48:45;;;;;;;16.40;9.53;;;;;;;;;;4955986;28;20196;-78
2023/03/02 10:51:19;;;;;;;14.53;9.63;;;;;;;;;;4961303;28;20191;-78
2023/03/02 10:53:45;;;;;;;14.70;9.60;;;;;;;;;;4949679;28;20192;-78
2023/03/02 10:56:17;;;;;;;16.13;9.97;;;;;;;;;;4954792;28;21005;-78
2023/03/02 10:58:42;;;;;;;15.10;9.13;;;;;;;;;;4955123;28;20217;-78
2023/03/02 11:01:15;;;;;;;15.37;8.60;;;;;;;;;;4950092;28;20184;-76
2023/03/02 11:03:41;;;;;;;21.13;10.10;;;;;;;;;;4957480;28;20721;-76
2023/03/02 11:06:25;;;;;;;16.23;9.40;;;;;;;;;;4960304;28;20185;-76
2023/03/02 11:09:03;;;;;;;15.97;8.87;;;;;;;;;;4953762;28;20296;-76
2023/03/02 11:11:29;;;;;;;15.30;8.77;;;;;;;;;;4958404;28;20193;-76
2023/03/02 11:13:55;;;;;;;12.97;9.67;;;;;;;;;;4952588;28;20271;-76
2023/03/02 11:16:23;;;;;;;15.20;8.90;;;;;;;;;;4955054;28;20185;-76
2023/03/02 11:18:59;;;;;;;16.37;9.43;;;;;;;;;;4950221;28;20230;-76
2023/03/02 11:21:28;;;;;;;14.37;8.53;;;;;;;;;;4955551;28;20654;-77
2023/03/02 11:24:06;;;;;;;13.77;8.63;;;;;;;;;;4955012;28;20185;-78
2023/03/02 11:26:38;;;;;;;13.17;7.77;;;;;;;;;;4948077;28;20215;-77
2023/03/02 11:29:03;;;;;;;13.53;8.93;;;;;;;;;;4967988;28;20221;-77
2023/03/02 11:31:32;;;;;;;13.17;8.97;;;;;;;;;;4958622;28;20207;-77
2023/03/02 11:34:19;;;;;;;13.63;8.00;;;;;;;;;;4953999;28;20184;-77
2023/03/02 11:36:51;;;;;;;13.63;8.03;;;;;;;;;;4958616;28;20176;-76
2023/03/02 11:39:18;;;;;;;15.53;9.00;;;;;;;;;;4956700;28;20211;-77
2023/03/02 11:41:43;;;;;;;11.60;7.80;;;;;;;;;;4958626;28;20177;-77
2023/03/02 11:44:27;;;;;;;13.27;7.37;;;;;;;;;;4952665;28;20719;-77
2023/03/02 11:46:57;;;;;;;11.87;8.40;;;;;;;;;;4946334;28;20173;-77
2023/03/02 11:49:25;;;;;;;12.57;8.50;;;;;;;;;;4954285;28;20260;-76
2023/03/02 11:51:55;;;;;;;13.57;7.90;;;;;;;;;;4956202;28;20666;-77
2023/03/02 11:54:23;;;;;;;14.77;8.73;;;;;;;;;;4953334;28;20647;-77
2023/03/02 11:56:48;;;;;;;12.53;7.73;;;;;;;;;;4953625;28;20189;-76
2023/03/02 11:59:19;;;;;;;13.60;7.30;;;;;;;;;;4956967;28;20292;-77
2023/03/02 12:01:47;;;;;;;11.57;7.80;;;;;;;;;;4950449;28;20181;-77
2023/03/02 12:04:24;;;;;;;12.75;8.43;;;;;;;;;;4953842;28;20270;-76
2023/03/02 12:06:49;;;;;;;15.77;10.07;;;;;;;;;;4956829;28;20221;-78
2023/03/02 12:09:23;;;;;;;15.07;9.33;;;;;;;;;;4952076;28;20209;-77
2023/03/02 12:12:07;;;;;;;14.32;8.70;;;;;;;;;;4948008;28;20173;-77
2023/03/02 12:14:37;;;;;;;13.63;8.65;;;;;;;;;;4952630;28;20194;-76
2023/03/02 12:17:04;;;;;;;14.25;9.13;;;;;;;;;;4960026;28;20307;-77
2023/03/02 12:19:38;;;;;;;15.65;10.40;;;;;;;;;;4951267;28;20362;-77
2023/03/02 12:22:05;;;;;;;14.20;9.55;;;;;;;;;;4948862;28;20232;-77
2023/03/02 12:24:32;;;;;;;14.00;9.32;;;;;;;;;;4950894;28;20220;-78
2023/03/02 12:27:12;;;;;;;14.70;10.35;;;;;;;;;;4957357;28;20173;-78
2023/03/02 12:29:39;;;;;;;15.13;10.25;;;;;;;;;;4966635;28;20208;-78
2023/03/02 12:32:10;;;;;;;14.63;9.90;;;;;;;;;;4961470;28;20181;-77
2023/03/02 12:34:37;;;;;;;16.02;10.60;;;;;;;;;;4968987;28;20177;-77
2023/03/02 12:37:06;;;;;;;19.10;11.85;;;;;;;;;;4954066;28;20184;-77
2023/03/02 12:39:34;;;;;;;15.48;11.02;;;;;;;;;;4952836;28;20215;-77
2023/03/02 12:42:18;;;;;;;16.08;10.88;;;;;;;;;;4968507;28;20578;-77
2023/03/02 12:44:51;;;;;;;15.52;10.55;;;;;;;;;;4951419;28;20183;-77
2023/03/02 12:47:24;;;;;;;14.48;9.93;;;;;;;;;;4952989;28;20204;-77
2023/03/02 12:49:54;;;;;;;13.50;9.20;;;;;;;;;;4949570;28;20205;-77
2023/03/02 12:52:30;;;;;;;15.80;10.35;;;;;;;;;;4955181;28;20505;-78
2023/03/02 12:55:00;;;;;;;15.68;10.27;;;;;;;;;;4964629;28;20202;-78
2023/03/02 12:57:25;;;;;;;18.08;11.23;;;;;;;;;;4952075;28;20656;-78
2023/03/02 12:59:51;;;;;;;13.80;9.85;;;;;;;;;;4946378;28;20296;-78
2023/03/02 13:02:21;;;;;;;12.98;8.60;;;;;;;;;;4945566;28;20512;-78
2023/03/02 13:04:54;;;;;;;15.07;10.05;;;;;;;;;;4948037;28;20209;-78
2023/03/02 13:07:21;;;;;;;14.77;9.88;;;;;;;;;;4957574;28;20181;-79
2023/03/02 13:09:48;;;;;;;14.15;9.70;;;;;;;;;;4955471;28;20219;-77
2023/03/02 13:12:13;;;;;;;14.15;9.93;;;;;;;;;;4949331;28;20185;-76
2023/03/02 13:14:39;;;;;;;15.60;9.50;;;;;;;;;;4957351;28;20324;-78
2023/03/02 13:17:04;;;;;;;15.75;10.20;;;;;;;;;;4954167;28;20272;-76
2023/03/02 13:19:31;;;;;;;12.82;9.30;;;;;;;;;;4950967;28;20616;-76
2023/03/02 13:21:57;;;;;;;14.43;9.57;;;;;;;;;;4956158;28;20207;-76
2023/03/02 13:24:31;;;;;;;15.88;9.95;;;;;;;;;;4961633;28;20169;-76
2023/03/02 13:26:59;;;;;;;14.60;10.18;;;;;;;;;;4946125;28;20181;-78
2023/03/02 13:29:30;;;;;;;17.52;9.30;;;;;;;;;;4965517;28;20220;-78
2023/03/02 13:31:55;;;;;;;14.88;9.35;;;;;;;;;;4954532;28;20177;-78
2023/03/02 13:34:22;;;;;;;14.50;9.57;;;;;;;;;;4954835;28;20192;-78
2023/03/02 13:36:48;;;;;;;16.02;9.30;;;;;;;;;;4969021;28;20185;-78
2023/03/02 13:39:20;;;;;;;13.18;8.88;;;;;;;;;;4957742;28;20686;-77
2023/03/02 13:41:53;;;;;;;17.13;10.30;;;;;;;;;;4952695;28;20177;-77
2023/03/02 13:44:20;;;;;;;15.05;9.73;;;;;;;;;;4949543;28;20177;-77
2023/03/02 13:46:46;;;;;;;15.88;10.52;;;;;;;;;;4948852;28;20216;-77
2023/03/02 13:49:11;;;;;;;12.20;8.38;;;;;;;;;;4950141;28;20233;-77
2023/03/02 13:51:38;;;;;;;12.38;8.32;;;;;;;;;;4953403;28;20698;-77
2023/03/02 13:54:05;;;;;;;16.52;10.48;;;;;;;;;;4944665;28;20177;-76
2023/03/02 13:56:36;;;;;;;12.80;8.80;;;;;;;;;;4952478;28;20185;-76
2023/03/02 13:59:02;;;;;;;13.27;8.90;;;;;;;;;;4954182;28;20217;-76
2023/03/02 14:01:27;;;;;;;13.00;8.70;;;;;;;;;;4950522;28;22265;-76
2023/03/02 14:03:53;;;;;;;13.98;8.77;;;;;;;;;;4959472;28;20441;-77
2023/03/02 14:06:18;;;;;;;12.05;7.75;;;;;;;;;;4947948;28;20180;-77
2023/03/02 14:08:46;;;;;;;14.60;8.60;;;;;;;;;;4953580;28;20550;-77
2023/03/02 14:11:13;;;;;;;11.98;8.15;;;;;;;;;;4957248;28;20191;-77
2023/03/02 14:13:44;;;;;;;13.25;9.20;;;;;;;;;;4953824;28;20184;-76
2023/03/02 14:16:13;;;;;;;16.60;8.23;;;;;;;;;;4955831;28;20185;-77
2023/03/02 14:18:40;;;;;;;14.57;8.90;;;;;;;;;;4963331;28;20714;-77
2023/03/02 14:21:09;;;;;;;15.63;9.52;;;;;;;;;;4955450;28;20181;-77
2023/03/02 14:23:34;;;;;;;15.32;10.45;;;;;;;;;;4949686;28;20184;-77